createdAt,value
2019-06-01T00:01:50.515Z,101821.92
2019-06-01T00:04:20.688Z,101828.77
2019-06-01T00:06:54.249Z,101825.93
2019-06-01T00:09:24.291Z,101820.89
2019-06-01T00:11:54.297Z,101824.16
2019-06-01T00:14:24.309Z,101825.00
2019-06-01T00:16:54.917Z,101819.93
2019-06-01T00:19:24.917Z,101817.52
2019-06-01T00:21:54.953Z,101817.20
2019-06-01T00:24:25.032Z,101816.81
2019-06-01T00:26:55.547Z,101811.67
2019-06-01T00:29:30.147Z,101816.61
2019-06-01T00:32:01.795Z,101815.84
2019-06-01T00:34:31.876Z,101808.47
2019-06-01T00:37:01.904Z,101811.20
2019-06-01T00:39:33.091Z,101816.49
2019-06-01T00:42:03.184Z,101820.42
2019-06-01T00:44:33.289Z,101811.70
2019-06-01T00:47:03.385Z,101813.84
2019-06-01T00:49:33.751Z,101815.47
2019-06-01T00:52:04.518Z,101812.20
2019-06-01T00:54:34.584Z,101810.18
2019-06-01T00:57:09.021Z,101808.81
2019-06-01T00:59:39.059Z,101808.76
2019-06-01T01:02:09.734Z,101807.87
2019-06-01T01:04:39.771Z,101808.66
2019-06-01T01:07:09.790Z,101807.87
2019-06-01T01:09:39.823Z,101806.02
2019-06-01T01:12:10.389Z,101811.60
2019-06-01T01:14:43.464Z,101816.00
2019-06-01T01:17:13.558Z,101823.37
2019-06-01T01:19:43.672Z,101820.08
2019-06-01T01:22:13.680Z,101817.20
2019-06-01T01:24:43.713Z,101822.36
2019-06-01T01:27:19.741Z,101819.84
2019-06-01T01:29:50.923Z,101818.08
2019-06-01T01:32:24.456Z,101818.35
2019-06-01T01:34:55.568Z,101817.59
2019-06-01T01:37:26.251Z,101820.28
2019-06-01T01:39:56.348Z,101815.12
2019-06-01T01:42:26.373Z,101816.81
2019-06-01T01:44:56.638Z,101816.00
2019-06-01T01:47:28.294Z,101812.55
2019-06-01T01:49:58.690Z,101814.47
2019-06-01T01:52:28.723Z,101809.89
2019-06-01T01:54:58.963Z,101810.18
2019-06-01T01:57:29.050Z,101811.34
2019-06-01T01:59:59.427Z,101811.56
2019-06-01T02:02:30.045Z,101814.25
2019-06-01T02:05:00.053Z,101814.69
2019-06-01T02:07:30.103Z,101810.36
2019-06-01T02:10:01.773Z,101803.56
2019-06-01T02:12:32.206Z,101811.18
2019-06-01T02:15:05.437Z,101800.77
2019-06-01T02:17:35.596Z,101814.29
2019-06-01T02:20:08.762Z,101806.79
2019-06-01T02:22:38.793Z,101806.79
2019-06-01T02:25:08.972Z,101805.48
2019-06-01T02:27:39.001Z,101806.40
2019-06-01T02:30:09.269Z,101808.55
2019-06-01T02:32:40.636Z,101804.98
2019-06-01T02:35:10.668Z,101804.50
2019-06-01T02:37:40.766Z,101809.64
2019-06-01T02:40:15.245Z,101805.59
2019-06-01T02:42:45.538Z,101806.46
2019-06-01T02:45:17.661Z,101806.86
2019-06-01T02:47:48.829Z,101806.02
2019-06-01T02:50:19.277Z,101808.72
2019-06-01T02:52:50.983Z,101806.14
2019-06-01T02:55:23.083Z,101806.19
2019-06-01T02:57:52.901Z,101807.11
2019-06-01T03:00:46.958Z,101807.95
2019-06-01T03:03:17.934Z,101807.11
2019-06-01T03:05:50.809Z,101813.21
2019-06-01T03:08:22.663Z,101813.16
2019-06-01T03:10:55.406Z,101809.27
2019-06-01T03:13:28.667Z,101814.62
2019-06-01T03:16:03.284Z,101818.62
2019-06-01T03:18:35.196Z,101823.06
2019-06-01T03:21:07.912Z,101822.73
2019-06-01T03:23:41.017Z,101832.91
2019-06-01T03:26:17.564Z,101833.79
2019-06-01T03:28:53.471Z,101832.33
2019-06-01T03:31:23.571Z,101840.39
2019-06-01T03:33:53.585Z,101844.58
2019-06-01T03:36:23.687Z,101840.13
2019-06-01T03:38:54.435Z,101839.64
2019-06-01T03:41:30.807Z,101842.66
2019-06-01T03:44:02.408Z,101846.11
2019-06-01T03:46:32.748Z,101850.66
2019-06-01T03:49:03.809Z,101853.87
2019-06-01T03:51:33.947Z,101852.02
2019-06-01T03:54:06.895Z,101849.63
2019-06-01T03:56:37.115Z,101845.91
2019-06-01T03:59:09.532Z,101840.48
2019-06-01T04:01:42.404Z,101840.23
2019-06-01T04:04:12.410Z,101840.83
2019-06-01T04:06:42.444Z,101831.36
2019-06-01T04:09:13.954Z,101832.34
2019-06-01T04:11:43.994Z,101840.50
2019-06-01T04:14:14.022Z,101850.40
2019-06-01T04:16:44.135Z,101852.42
2019-06-01T04:19:14.213Z,101853.06
2019-06-01T04:21:44.245Z,101859.73
2019-06-01T04:24:14.321Z,101868.17
2019-06-01T04:26:45.008Z,101867.55
2019-06-01T04:29:15.001Z,101866.51
2019-06-01T04:31:45.668Z,101872.09
2019-06-01T04:34:16.013Z,101865.27
2019-06-01T04:36:47.109Z,101861.02
2019-06-01T04:39:17.139Z,101866.09
2019-06-01T04:41:48.814Z,101866.23
2019-06-01T04:44:18.845Z,101869.95
2019-06-01T04:46:48.851Z,101867.76
2019-06-01T04:49:19.438Z,101861.47
2019-06-01T04:51:51.087Z,101862.79
2019-06-01T04:54:21.781Z,101862.67
2019-06-01T04:56:53.463Z,101854.95
2019-06-01T04:59:23.562Z,101853.36
2019-06-01T05:01:53.638Z,101850.30
2019-06-01T05:04:23.681Z,101854.68
2019-06-01T05:06:53.687Z,101850.10
2019-06-01T05:09:23.719Z,101850.70
2019-06-01T05:11:53.751Z,101852.59
2019-06-01T05:14:23.791Z,101845.90
2019-06-01T05:16:53.807Z,101846.50
2019-06-01T05:19:23.845Z,101858.75
2019-06-01T05:21:56.556Z,101855.25
2019-06-01T05:24:30.172Z,101842.78
2019-06-01T05:27:00.780Z,101850.85
2019-06-01T05:29:30.855Z,101850.33
2019-06-01T05:32:02.529Z,101851.64
2019-06-01T05:34:32.611Z,101845.02
2019-06-01T05:37:02.698Z,101838.02
2019-06-01T05:39:32.693Z,101840.25
2019-06-01T05:42:02.716Z,101842.12
2019-06-01T05:44:32.768Z,101836.95
2019-06-01T05:47:02.792Z,101837.96
2019-06-01T05:49:32.820Z,101836.19
2019-06-01T05:52:02.936Z,101840.54
2019-06-01T05:54:32.972Z,101845.84
2019-06-01T05:57:02.983Z,101843.97
2019-06-01T05:59:33.010Z,101846.88
2019-06-01T06:02:03.019Z,101844.97
2019-06-01T06:04:33.047Z,101842.08
2019-06-01T06:07:03.076Z,101847.42
2019-06-01T06:09:33.093Z,101842.89
2019-06-01T06:12:03.353Z,101845.14
2019-06-01T06:14:33.336Z,101840.15
2019-06-01T06:17:03.491Z,101839.91
2019-06-01T06:19:33.599Z,101837.30
2019-06-01T06:22:06.976Z,101835.83
2019-06-01T06:24:37.012Z,101840.25
2019-06-01T06:27:07.050Z,101836.11
2019-06-01T06:29:37.078Z,101841.73
2019-06-01T06:32:09.232Z,101836.41
2019-06-01T06:34:38.815Z,101842.12
2019-06-01T06:37:08.862Z,101843.53
2019-06-01T06:39:38.885Z,101847.06
2019-06-01T06:42:11.015Z,101841.83
2019-06-01T06:44:41.042Z,101833.14
2019-06-01T06:47:11.072Z,101836.87
2019-06-01T06:49:42.157Z,101837.28
2019-06-01T06:52:15.389Z,101840.47
2019-06-01T06:54:45.431Z,101845.36
2019-06-01T06:57:16.031Z,101843.66
2019-06-01T06:59:46.161Z,101840.62
2019-06-01T07:02:16.747Z,101831.48
2019-06-01T07:04:49.583Z,101839.36
2019-06-01T07:07:19.636Z,101842.38
2019-06-01T07:09:49.722Z,101840.73
2019-06-01T07:12:21.228Z,101851.88
2019-06-01T07:14:52.373Z,101846.73
2019-06-01T07:17:23.451Z,101851.31
2019-06-01T07:19:55.442Z,101851.65
2019-06-01T07:22:25.913Z,101859.98
2019-06-01T07:24:55.921Z,101856.41
2019-06-01T07:27:26.212Z,101856.14
2019-06-01T07:29:57.446Z,101853.06
2019-06-01T07:32:28.660Z,101849.12
2019-06-01T07:35:01.241Z,101852.41
2019-06-01T07:37:30.787Z,101845.07
2019-06-01T07:40:00.905Z,101849.67
2019-06-01T07:42:31.010Z,101852.37
2019-06-01T07:45:01.032Z,101848.47
2019-06-01T07:47:31.432Z,101848.73
2019-06-01T07:50:02.092Z,101838.59
2019-06-01T07:52:33.044Z,101842.15
2019-06-01T07:55:07.125Z,101846.63
2019-06-01T07:57:42.427Z,101833.88
2019-06-01T08:00:11.314Z,101838.09
2019-06-01T08:02:41.360Z,101837.91
2019-06-01T08:05:11.617Z,101827.77
2019-06-01T08:07:41.941Z,101831.45
2019-06-01T08:10:12.179Z,101829.76
2019-06-01T08:12:42.184Z,101833.25
2019-06-01T08:15:12.601Z,101838.75
2019-06-01T08:17:42.631Z,101837.42
2019-06-01T08:20:14.451Z,101830.09
2019-06-01T08:22:44.480Z,101837.09
2019-06-01T08:25:14.687Z,101831.08
2019-06-01T08:27:44.719Z,101832.69
2019-06-01T08:30:15.898Z,101831.72
2019-06-01T08:32:46.102Z,101827.42
2019-06-01T08:35:16.266Z,101836.47
2019-06-01T08:37:46.471Z,101830.70
2019-06-01T08:40:16.675Z,101834.72
2019-06-01T08:42:46.789Z,101836.42
2019-06-01T08:45:17.210Z,101827.18
2019-06-01T08:47:47.373Z,101825.99
2019-06-01T08:50:17.616Z,101820.77
2019-06-01T08:52:47.616Z,101816.34
2019-06-01T08:55:17.779Z,101805.38
2019-06-01T08:57:48.892Z,101801.52
2019-06-01T09:00:18.999Z,101803.13
2019-06-01T09:02:49.093Z,101807.25
2019-06-01T09:05:24.447Z,101810.91
2019-06-01T09:07:50.970Z,101810.02
2019-06-01T09:10:25.094Z,101815.30
2019-06-01T09:12:52.813Z,101810.70
2019-06-01T09:15:22.885Z,101816.33
2019-06-01T09:17:54.809Z,101801.84
2019-06-01T09:20:25.486Z,101799.42
2019-06-01T09:22:55.703Z,101802.20
2019-06-01T09:25:27.701Z,101803.42
2019-06-01T09:27:57.994Z,101799.09
2019-06-01T09:30:32.075Z,101792.94
2019-06-01T09:33:02.439Z,101791.56
2019-06-01T09:35:52.671Z,101782.22
2019-06-01T09:38:06.253Z,101784.03
2019-06-01T09:40:39.941Z,101780.50
2019-06-01T09:43:10.104Z,101782.42
2019-06-01T09:45:40.120Z,101780.33
2019-06-01T09:48:19.095Z,101780.87
2019-06-01T09:50:49.388Z,101781.44
2019-06-01T09:53:19.490Z,101771.03
2019-06-01T09:55:54.566Z,101778.41
2019-06-01T09:58:32.166Z,101773.28
2019-06-01T10:01:04.200Z,101779.51
2019-06-01T10:03:36.462Z,101771.44
2019-06-01T10:06:06.668Z,101770.55
2019-06-01T10:08:38.834Z,101769.01
2019-06-01T10:11:11.482Z,101757.53
2019-06-01T10:13:42.588Z,101760.36
2019-06-01T10:16:12.982Z,101760.52
2019-06-01T10:18:43.242Z,101750.41
2019-06-01T10:21:15.407Z,101752.89
2019-06-01T10:23:49.524Z,101750.55
2019-06-01T10:26:20.193Z,101747.22
2019-06-01T10:28:50.284Z,101759.84
2019-06-01T10:31:20.554Z,101753.37
2019-06-01T10:33:53.570Z,101746.41
2019-06-01T10:36:23.762Z,101750.02
2019-06-01T10:38:54.039Z,101746.36
2019-06-01T10:41:24.035Z,101745.43
2019-06-01T10:43:56.992Z,101755.98
2019-06-01T10:46:31.758Z,101751.48
2019-06-01T10:49:01.897Z,101747.02
2019-06-01T10:51:36.225Z,101738.33
2019-06-01T10:54:06.487Z,101745.28
2019-06-01T10:56:36.565Z,101737.91
2019-06-01T10:59:11.206Z,101735.75
2019-06-01T11:01:41.211Z,101744.45
2019-06-01T11:04:12.133Z,101737.50
2019-06-01T11:06:48.370Z,101727.55
2019-06-01T11:09:16.136Z,101723.09
2019-06-01T11:11:46.125Z,101728.34
2019-06-01T11:14:22.942Z,101728.81
2019-06-01T11:16:56.786Z,101729.73
2019-06-01T11:19:29.380Z,101722.45
2019-06-01T11:22:00.102Z,101719.08
2019-06-01T11:24:35.279Z,101721.19
2019-06-01T11:27:06.972Z,101719.16
2019-06-01T11:30:18.546Z,101725.13
2019-06-01T11:32:20.069Z,101706.84
2019-06-01T11:34:51.237Z,101715.37
2019-06-01T11:37:23.679Z,101713.91
2019-06-01T11:39:55.624Z,101698.45
2019-06-01T11:42:31.859Z,101709.52
2019-06-01T11:45:05.974Z,101704.29
2019-06-01T11:47:41.028Z,101709.13
2019-06-01T11:50:12.085Z,101704.22
2019-06-01T11:52:43.221Z,101699.59
2019-06-01T11:55:14.392Z,101704.15
2019-06-01T11:57:45.778Z,101696.83
2019-06-01T12:00:17.834Z,101698.63
2019-06-01T12:02:48.726Z,101698.05
2019-06-01T12:05:21.793Z,101690.61
2019-06-01T12:07:56.686Z,101690.09
2019-06-01T12:10:29.209Z,101691.42
2019-06-01T12:13:04.829Z,101688.13
2019-06-01T12:15:36.180Z,101677.28
2019-06-01T12:18:06.377Z,101683.66
2019-06-01T12:20:38.667Z,101682.23
2019-06-01T12:23:10.182Z,101675.60
2019-06-01T12:25:40.263Z,101673.85
2019-06-01T12:28:12.358Z,101675.64
2019-06-01T12:30:42.361Z,101672.06
2019-06-01T12:33:12.381Z,101673.42
2019-06-01T12:35:43.946Z,101668.80
2019-06-01T12:38:14.569Z,101663.84
2019-06-01T12:40:45.337Z,101658.98
2019-06-01T12:43:15.796Z,101660.94
2019-06-01T12:46:05.536Z,101652.72
2019-06-01T12:48:24.684Z,101654.52
2019-06-01T12:50:54.959Z,101653.80
2019-06-01T12:53:24.980Z,101650.67
2019-06-01T12:55:55.074Z,101650.44
2019-06-01T12:58:25.079Z,101639.77
2019-06-01T13:00:55.094Z,101643.34
2019-06-01T13:03:26.693Z,101642.24
2019-06-01T13:05:57.016Z,101633.61
2019-06-01T13:08:27.114Z,101635.16
2019-06-01T13:10:57.127Z,101620.40
2019-06-01T13:13:29.191Z,101630.99
2019-06-01T13:15:58.889Z,101621.98
2019-06-01T13:18:28.912Z,101617.80
2019-06-01T13:20:58.951Z,101618.79
2019-06-01T13:23:28.932Z,101614.77
2019-06-01T13:25:58.956Z,101613.17
2019-06-01T13:28:38.146Z,101613.75
2019-06-01T13:31:00.678Z,101607.92
2019-06-01T13:33:31.167Z,101610.61
2019-06-01T13:36:01.223Z,101606.44
2019-06-01T13:38:31.234Z,101606.05
2019-06-01T13:41:01.219Z,101603.99
2019-06-01T13:43:32.903Z,101604.70
2019-06-01T13:46:06.301Z,101595.27
2019-06-01T13:48:34.698Z,101602.13
2019-06-01T13:51:04.852Z,101600.23
2019-06-01T13:53:34.880Z,101591.54
2019-06-01T13:56:05.005Z,101592.67
2019-06-01T13:58:35.100Z,101599.30
2019-06-01T14:01:05.336Z,101587.50
2019-06-01T14:03:35.366Z,101585.58
2019-06-01T14:06:06.009Z,101591.95
2019-06-01T14:08:36.183Z,101590.97
2019-06-01T14:11:09.225Z,101580.49
2019-06-01T14:13:39.340Z,101583.98
2019-06-01T14:16:09.445Z,101577.21
2019-06-01T14:18:39.445Z,101584.55
2019-06-01T14:21:09.523Z,101577.47
2019-06-01T14:23:39.608Z,101580.59
2019-06-01T14:26:09.628Z,101583.61
2019-06-01T14:28:41.766Z,101588.21
2019-06-01T14:31:12.857Z,101579.13
2019-06-01T14:33:42.941Z,101584.09
2019-06-01T14:36:13.663Z,101577.21
2019-06-01T14:38:47.656Z,101576.33
2019-06-01T14:41:16.475Z,101574.41
2019-06-01T14:43:49.087Z,101584.09
2019-06-01T14:46:20.617Z,101576.80
2019-06-01T14:48:55.750Z,101572.34
2019-06-01T14:51:25.634Z,101569.89
2019-06-01T14:53:58.716Z,101565.37
2019-06-01T14:56:28.716Z,101565.80
2019-06-01T14:59:01.955Z,101565.72
2019-06-01T15:01:33.242Z,101557.52
2019-06-01T15:04:03.529Z,101566.27
2019-06-01T15:06:33.793Z,101563.75
2019-06-01T15:09:17.616Z,101561.44
2019-06-01T15:11:37.086Z,101555.30
2019-06-01T15:14:07.877Z,101558.28
2019-06-01T15:16:40.876Z,101556.69
2019-06-01T15:19:11.652Z,101555.42
2019-06-01T15:21:41.753Z,101554.19
2019-06-01T15:24:27.535Z,101552.31
2019-06-01T15:27:00.361Z,101542.96
2019-06-01T15:29:30.460Z,101538.55
2019-06-01T15:32:02.277Z,101538.48
2019-06-01T15:34:34.524Z,101541.73
2019-06-01T15:37:06.169Z,101543.34
2019-06-01T15:39:36.244Z,101542.00
2019-06-01T15:42:08.077Z,101535.80
2019-06-01T15:44:38.137Z,101537.63
2019-06-01T15:47:12.733Z,101542.42
2019-06-01T15:49:42.757Z,101542.22
2019-06-01T15:52:12.778Z,101541.86
2019-06-01T15:54:42.885Z,101536.02
2019-06-01T15:57:12.933Z,101538.48
2019-06-01T15:59:42.944Z,101533.36
2019-06-01T16:02:13.536Z,101527.00
2019-06-01T16:04:43.612Z,101527.77
2019-06-01T16:07:13.633Z,101532.86
2019-06-01T16:09:45.917Z,101523.16
2019-06-01T16:12:16.093Z,101525.28
2019-06-01T16:14:46.142Z,101522.78
2019-06-01T16:17:18.008Z,101529.36
2019-06-01T16:19:49.583Z,101525.82
2019-06-01T16:22:19.676Z,101530.14
2019-06-01T16:24:51.212Z,101531.05
2019-06-01T16:27:21.302Z,101529.77
2019-06-01T16:29:51.314Z,101524.30
2019-06-01T16:32:21.410Z,101524.52
2019-06-01T16:34:51.418Z,101519.72
2019-06-01T16:37:21.429Z,101515.32
2019-06-01T16:39:59.762Z,101523.19
2019-06-01T16:42:24.548Z,101519.75
2019-06-01T16:44:55.318Z,101519.50
2019-06-01T16:47:25.555Z,101516.38
2019-06-01T16:49:57.676Z,101514.33
2019-06-01T16:52:30.074Z,101513.52
2019-06-01T16:55:02.728Z,101510.62
2019-06-01T16:57:33.798Z,101512.81
2019-06-01T17:00:07.205Z,101511.77
2019-06-01T17:02:38.340Z,101511.23
2019-06-01T17:05:09.384Z,101513.50
2019-06-01T17:07:39.373Z,101513.23
2019-06-01T17:10:24.923Z,101507.58
2019-06-01T17:12:43.752Z,101506.48
2019-06-01T17:15:15.604Z,101505.95
2019-06-01T17:17:45.930Z,101503.68
2019-06-01T17:20:40.417Z,101508.72
2019-06-01T17:23:26.232Z,101513.48
2019-06-01T17:25:43.505Z,101505.86
2019-06-01T17:28:13.577Z,101504.77
2019-06-01T17:30:46.835Z,101503.48
2019-06-01T17:33:17.729Z,101508.52
2019-06-01T17:35:48.210Z,101507.86
2019-06-01T17:38:18.527Z,101507.28
2019-06-01T17:40:54.405Z,101508.02
2019-06-01T17:43:23.680Z,101507.16
2019-06-01T17:45:55.557Z,101502.45
2019-06-01T17:48:27.452Z,101505.00
2019-06-01T17:50:57.550Z,101504.41
2019-06-01T17:53:27.643Z,101500.52
2019-06-01T17:55:57.736Z,101504.77
2019-06-01T17:58:27.818Z,101494.20
2019-06-01T18:00:58.061Z,101484.84
2019-06-01T18:03:28.234Z,101489.98
2019-06-01T18:05:58.890Z,101490.84
2019-06-01T18:08:28.991Z,101485.88
2019-06-01T18:10:59.239Z,101478.94
2019-06-01T18:13:29.391Z,101491.83
2019-06-01T18:15:59.549Z,101484.66
2019-06-01T18:18:29.645Z,101495.31
2019-06-01T18:21:02.262Z,101496.04
2019-06-01T18:23:32.744Z,101486.83
2019-06-01T18:26:02.888Z,101491.18
2019-06-01T18:28:33.038Z,101488.88
2019-06-01T18:31:03.030Z,101490.21
2019-06-01T18:33:34.788Z,101491.30
2019-06-01T18:36:05.416Z,101487.75
2019-06-01T18:38:35.711Z,101488.97
2019-06-01T18:41:11.617Z,101491.97
2019-06-01T18:43:38.307Z,101489.19
2019-06-01T18:46:08.464Z,101489.41
2019-06-01T18:48:38.539Z,101490.45
2019-06-01T18:51:12.307Z,101487.64
2019-06-01T18:53:43.950Z,101486.54
2019-06-01T18:56:16.059Z,101486.78
2019-06-01T18:58:46.123Z,101491.03
2019-06-01T19:01:20.744Z,101482.38
2019-06-01T19:03:48.976Z,101483.68
2019-06-01T19:06:21.443Z,101482.31
2019-06-01T19:08:51.530Z,101481.94
2019-06-01T19:11:35.391Z,101477.78
2019-06-01T19:13:56.808Z,101476.65
2019-06-01T19:16:26.809Z,101476.06
2019-06-01T19:18:56.818Z,101476.63
2019-06-01T19:21:29.814Z,101478.89
2019-06-01T19:23:59.850Z,101483.94
2019-06-01T19:26:29.847Z,101486.29
2019-06-01T19:28:59.934Z,101486.00
2019-06-01T19:31:30.005Z,101490.65
2019-06-01T19:34:00.302Z,101490.69
2019-06-01T19:36:31.766Z,101488.47
2019-06-01T19:39:04.270Z,101494.36
2019-06-01T19:41:44.071Z,101498.23
2019-06-01T19:44:07.332Z,101496.70
2019-06-01T19:46:37.529Z,101498.48
2019-06-01T19:49:08.299Z,101502.84
2019-06-01T19:51:39.498Z,101507.45
2019-06-01T19:54:10.640Z,101506.02
2019-06-01T19:56:40.892Z,101507.00
2019-06-01T19:59:11.820Z,101508.36
2019-06-01T20:01:42.179Z,101509.25
2019-06-01T20:04:21.318Z,101514.13
2019-06-01T20:06:47.435Z,101512.24
2019-06-01T20:09:17.498Z,101512.26
2019-06-01T20:12:00.858Z,101509.25
2019-06-01T20:14:20.281Z,101506.67
2019-06-01T20:16:50.329Z,101516.09
2019-06-01T20:19:21.951Z,101513.65
2019-06-01T20:21:51.994Z,101512.12
2019-06-01T20:24:22.164Z,101512.49
2019-06-01T20:26:52.443Z,101511.97
2019-06-01T20:29:22.556Z,101508.43
2019-06-01T20:31:52.630Z,101507.47
2019-06-01T20:34:22.869Z,101508.00
2019-06-01T20:36:54.623Z,101508.53
2019-06-01T20:39:24.650Z,101500.55
2019-06-01T20:41:54.733Z,101499.23
2019-06-01T20:44:27.165Z,101502.59
2019-06-01T20:46:57.433Z,101499.34
2019-06-01T20:49:27.453Z,101501.77
2019-06-01T20:51:57.596Z,101500.30
2019-06-01T20:54:27.840Z,101503.10
2019-06-01T20:56:57.839Z,101504.32
2019-06-01T20:59:27.847Z,101513.23
2019-06-01T21:01:57.853Z,101512.92
2019-06-01T21:04:27.876Z,101514.56
2019-06-01T21:06:57.864Z,101514.55
2019-06-01T21:09:27.898Z,101517.91
2019-06-01T21:11:57.959Z,101518.99
2019-06-01T21:14:28.342Z,101523.67
2019-06-01T21:16:58.339Z,101519.86
2019-06-01T21:19:29.437Z,101525.52
2019-06-01T21:21:59.428Z,101531.06
2019-06-01T21:24:29.531Z,101522.11
2019-06-01T21:26:59.523Z,101524.38
2019-06-01T21:29:29.552Z,101527.80
2019-06-01T21:31:59.639Z,101525.37
2019-06-01T21:34:29.628Z,101530.98
2019-06-01T21:36:59.708Z,101535.73
2019-06-01T21:39:29.741Z,101533.22
2019-06-01T21:42:01.284Z,101528.72
2019-06-01T21:44:33.987Z,101534.87
2019-06-01T21:47:04.163Z,101534.53
2019-06-01T21:49:34.181Z,101536.44
2019-06-01T21:52:04.466Z,101540.78
2019-06-01T21:54:36.090Z,101536.72
2019-06-01T21:57:06.345Z,101539.82
2019-06-01T21:59:36.327Z,101545.83
2019-06-01T22:02:06.985Z,101547.77
2019-06-01T22:04:37.160Z,101539.91
2019-06-01T22:07:08.160Z,101537.76
2019-06-01T22:09:39.309Z,101535.11
2019-06-01T22:12:09.703Z,101531.19
2019-06-01T22:14:39.715Z,101537.19
2019-06-01T22:17:09.815Z,101539.92
2019-06-01T22:19:39.811Z,101540.70
2019-06-01T22:22:09.837Z,101539.84
2019-06-01T22:24:39.864Z,101545.05
2019-06-01T22:27:09.877Z,101538.93
2019-06-01T22:29:39.895Z,101538.14
2019-06-01T22:32:11.343Z,101528.55
2019-06-01T22:34:43.202Z,101532.05
2019-06-01T22:37:13.198Z,101536.44
2019-06-01T22:39:43.314Z,101530.44
2019-06-01T22:42:13.315Z,101531.20
2019-06-01T22:44:43.343Z,101522.72
2019-06-01T22:47:15.280Z,101529.97
2019-06-01T22:49:45.263Z,101523.06
2019-06-01T22:52:17.790Z,101520.95
2019-06-01T22:54:48.439Z,101522.27
2019-06-01T22:57:18.488Z,101519.00
2019-06-01T22:59:48.566Z,101524.46
2019-06-01T23:02:21.469Z,101522.59
2019-06-01T23:04:53.445Z,101530.43
2019-06-01T23:07:23.533Z,101528.86
2019-06-01T23:09:54.607Z,101524.04
2019-06-01T23:12:25.408Z,101525.64
2019-06-01T23:14:55.638Z,101526.86
2019-06-01T23:17:29.865Z,101527.96
2019-06-01T23:19:59.106Z,101525.16
2019-06-01T23:22:30.687Z,101524.91
2019-06-01T23:25:00.727Z,101531.13
2019-06-01T23:27:31.445Z,101526.80
2019-06-01T23:30:08.698Z,101533.00
2019-06-01T23:32:41.519Z,101532.02
2019-06-01T23:35:13.278Z,101526.39
2019-06-01T23:37:55.055Z,101530.13
2019-06-01T23:40:25.060Z,101532.31
2019-06-01T23:42:55.758Z,101532.39
2019-06-01T23:45:27.298Z,101526.39
2019-06-01T23:47:57.557Z,101529.92
2019-06-01T23:50:27.590Z,101520.43
2019-06-01T23:53:12.782Z,101529.61
2019-06-01T23:55:29.945Z,101516.87
2019-06-01T23:58:00.073Z,101527.77
